PWSweather.com
Personal Weather Stations
Station Observations
NEWFAL01
Newton Falls, OH 44444

Newton Falls, OH 44444

Lat: 41.19902, Lon: -80.97668

Elevation: 920

Station Type: Vantage Pro 2

http://www.mvweathercenter.com

Latest ConditionsUpdated 9:00:01 PM EST Sunday, Feb 18, 2018
Currently Today's Max Today's Min Today's Average
Temperature 33.9°F1.1°C 41.7°F5.4°C 30.7°F-0.7°C 34.9°F1.6°C
Dew Point 26.5°F-3.1°C 29.9°F-1.2°C 26.1°F-3.3°C 28.2°F-2.1°C
Winds 1.2 mph N1.9 kmh N 12.7 mph N20.4 kmh N - 1.8 mph 2.9 kmh
Wind Gusts 3.5 mph5.6 kmh 18.4 mph29.6 kmh - -
Humidity 74% 92% 60% 77%
Pressure 30.29 in1025.7 mb 30.39 in1029.1 mb 30.04 in1017.3 mb -
Precipitation - 0.15 in3.8 mm - -
Hour Temp Dew Point Humidity Winds Wind Gusts Pressure Precip Precip Rate Daily Precip Total
09:00 PM 33.9°F1.1°C 26.5°F-3.1°C 74% 1.2 mph N1.9 kmh N 3.5 mph5.6 kmh 30.29 in1025.7 mb - 0.00 in0.0 mm 0.15 in3.8 mm
08:55 PM 33.9°F1.1°C 26.5°F-3.1°C 74% 2.3 mph N3.7 kmh N 4.6 mph7.4 kmh 30.29 in1025.7 mb - 0.00 in0.0 mm 0.15 in3.8 mm
08:50 PM 33.9°F1.1°C 26.5°F-3.1°C 74% 3.5 mph N5.6 kmh N 5.8 mph9.3 kmh 30.29 in1025.7 mb - 0.00 in0.0 mm 0.15 in3.8 mm
08:45 PM 34.0°F1.1°C 26.6°F-3.0°C 74% Calm Calm -- 30.29 in1025.7 mb - 0.00 in0.0 mm 0.15 in3.8 mm
08:40 PM 34.0°F1.1°C 26.6°F-3.0°C 74% 1.2 mph N1.9 kmh N -- 30.29 in1025.7 mb - 0.00 in0.0 mm 0.15 in3.8 mm
08:35 PM 34.0°F1.1°C 26.3°F-3.2°C 73% Calm Calm -- 30.29 in1025.7 mb - 0.00 in0.0 mm 0.15 in3.8 mm
08:30 PM 34.0°F1.1°C 26.6°F-3.0°C 74% Calm Calm 1.2 mph1.9 kmh 30.29 in1025.7 mb - 0.00 in0.0 mm 0.15 in3.8 mm
08:25 PM 34.0°F1.1°C 26.6°F-3.0°C 74% Calm Calm -- 30.29 in1025.7 mb - 0.00 in0.0 mm 0.15 in3.8 mm
08:20 PM 33.9°F1.1°C 26.5°F-3.1°C 74% 1.2 mph N1.9 kmh N 4.6 mph7.4 kmh 30.29 in1025.7 mb - 0.00 in0.0 mm 0.15 in3.8 mm
08:15 PM 33.8°F1.0°C 26.4°F-3.1°C 74% 2.3 mph N3.7 kmh N 4.6 mph7.4 kmh 30.29 in1025.7 mb - 0.00 in0.0 mm 0.15 in3.8 mm
08:10 PM 33.9°F1.1°C 26.1°F-3.3°C 73% Calm Calm -- 30.30 in1026.1 mb - 0.00 in0.0 mm 0.15 in3.8 mm
08:00 PM 34.4°F1.3°C 26.3°F-3.2°C 72% Calm Calm 1.2 mph1.9 kmh 30.30 in1026.1 mb - 0.00 in0.0 mm 0.15 in3.8 mm
07:55 PM 34.4°F1.3°C 26.3°F-3.2°C 72% Calm Calm -- 30.31 in1026.4 mb - 0.00 in0.0 mm 0.15 in3.8 mm
07:50 PM 34.7°F1.5°C 26.3°F-3.2°C 71% Calm Calm -- 30.31 in1026.4 mb - 0.00 in0.0 mm 0.15 in3.8 mm
07:45 PM 35.0°F1.7°C 26.9°F-2.8°C 72% Calm Calm -- 30.32 in1026.8 mb - 0.00 in0.0 mm 0.15 in3.8 mm
07:40 PM 35.2°F1.8°C 26.7°F-2.9°C 71% Calm Calm -- 30.32 in1026.8 mb - 0.00 in0.0 mm 0.15 in3.8 mm
07:35 PM 35.2°F1.8°C 27.1°F-2.7°C 72% Calm Calm -- 30.32 in1026.8 mb - 0.00 in0.0 mm 0.15 in3.8 mm
07:30 PM 35.2°F1.8°C 27.1°F-2.7°C 72% 1.2 mph N1.9 kmh N 3.5 mph5.6 kmh 30.32 in1026.8 mb - 0.00 in0.0 mm 0.15 in3.8 mm
07:25 PM 35.2°F1.8°C 27.0°F-2.8°C 72% Calm Calm 3.5 mph5.6 kmh 30.33 in1027.1 mb - 0.00 in0.0 mm 0.15 in3.8 mm
07:20 PM 35.1°F1.7°C 27.0°F-2.8°C 72% Calm Calm 3.5 mph5.6 kmh 30.33 in1027.1 mb - 0.00 in0.0 mm 0.15 in3.8 mm
07:15 PM 35.2°F1.8°C 27.1°F-2.7°C 72% Calm Calm -- 30.33 in1027.1 mb - 0.00 in0.0 mm 0.15 in3.8 mm
07:10 PM 35.3°F1.8°C 26.8°F-2.9°C 71% Calm Calm -- 30.32 in1026.8 mb - 0.00 in0.0 mm 0.15 in3.8 mm
07:00 PM 35.8°F2.1°C 27.0°F-2.8°C 70% Calm Calm -- 30.33 in1027.1 mb - 0.00 in0.0 mm 0.15 in3.8 mm
06:55 PM 36.0°F2.2°C 26.8°F-2.9°C 69% Calm Calm -- 30.34 in1027.4 mb - 0.00 in0.0 mm 0.15 in3.8 mm
06:50 PM 36.3°F2.4°C 27.1°F-2.7°C 69% Calm Calm -- 30.35 in1027.8 mb - 0.00 in0.0 mm 0.15 in3.8 mm
06:45 PM 36.6°F2.6°C 27.4°F-2.6°C 69% 1.2 mph N1.9 kmh N 3.5 mph5.6 kmh 30.34 in1027.4 mb - 0.00 in0.0 mm 0.15 in3.8 mm
06:40 PM 36.8°F2.7°C 26.9°F-2.8°C 67% Calm Calm -- 30.35 in1027.8 mb - 0.00 in0.0 mm 0.15 in3.8 mm
06:35 PM 37.1°F2.8°C 27.5°F-2.5°C 68% Calm Calm -- 30.34 in1027.4 mb - 0.00 in0.0 mm 0.15 in3.8 mm
06:30 PM 37.4°F3.0°C 27.4°F-2.6°C 67% Calm Calm -- 30.35 in1027.8 mb - 0.00 in0.0 mm 0.15 in3.8 mm
06:25 PM 37.6°F3.1°C 27.6°F-2.4°C 67% Calm Calm -- 30.35 in1027.8 mb - 0.00 in0.0 mm 0.15 in3.8 mm
06:20 PM 37.9°F3.3°C 27.5°F-2.5°C 66% 1.2 mph N1.9 kmh N 4.6 mph7.4 kmh 30.34 in1027.4 mb - 0.00 in0.0 mm 0.15 in3.8 mm
06:15 PM 38.2°F3.4°C 27.8°F-2.3°C 66% 1.2 mph N1.9 kmh N 3.5 mph5.6 kmh 30.34 in1027.4 mb - 0.00 in0.0 mm 0.15 in3.8 mm
06:10 PM 38.5°F3.6°C 28.1°F-2.2°C 66% 2.3 mph N3.7 kmh N 3.5 mph5.6 kmh 30.34 in1027.4 mb - 0.00 in0.0 mm 0.15 in3.8 mm
06:00 PM 39.0°F3.9°C 27.8°F-2.3°C 64% 2.3 mph N3.7 kmh N 1.2 mph1.9 kmh 30.34 in1027.4 mb - 0.00 in0.0 mm 0.15 in3.8 mm
05:55 PM 39.2°F4.0°C 28.4°F-2.0°C 65% 4.6 mph N7.4 kmh N 5.8 mph9.3 kmh 30.34 in1027.4 mb - 0.00 in0.0 mm 0.15 in3.8 mm
05:50 PM 39.4°F4.1°C 27.9°F-2.3°C 63% 1.2 mph N1.9 kmh N 4.6 mph7.4 kmh 30.35 in1027.8 mb - 0.00 in0.0 mm 0.15 in3.8 mm
05:45 PM 39.7°F4.3°C 28.5°F-1.9°C 64% 4.6 mph N7.4 kmh N 4.6 mph7.4 kmh 30.35 in1027.8 mb - 0.00 in0.0 mm 0.15 in3.8 mm
05:40 PM 40.0°F4.4°C 28.4°F-2.0°C 63% 3.5 mph N5.6 kmh N 8.1 mph13.0 kmh 30.35 in1027.8 mb - 0.00 in0.0 mm 0.15 in3.8 mm
05:35 PM 40.2°F4.6°C 28.6°F-1.9°C 63% 3.5 mph N5.6 kmh N 3.5 mph5.6 kmh 30.35 in1027.8 mb - 0.00 in0.0 mm 0.15 in3.8 mm
05:30 PM 40.5°F4.7°C 28.9°F-1.7°C 63% 3.5 mph N5.6 kmh N 5.8 mph9.3 kmh 30.35 in1027.8 mb - 0.00 in0.0 mm 0.15 in3.8 mm
05:25 PM 40.7°F4.8°C 29.1°F-1.6°C 63% 8.1 mph N13.0 kmh N 15.0 mph24.1 kmh 30.35 in1027.8 mb - 0.00 in0.0 mm 0.15 in3.8 mm
05:20 PM 40.8°F4.9°C 28.8°F-1.8°C 62% 1.2 mph N1.9 kmh N 3.5 mph5.6 kmh 30.35 in1027.8 mb - 0.00 in0.0 mm 0.15 in3.8 mm
05:15 PM 40.9°F4.9°C 28.9°F-1.7°C 62% 10.4 mph N16.7 kmh N 15.0 mph24.1 kmh 30.35 in1027.8 mb - 0.00 in0.0 mm 0.15 in3.8 mm
05:10 PM 41.0°F5.0°C 29.0°F-1.7°C 62% 6.9 mph N11.1 kmh N 9.2 mph14.8 kmh 30.35 in1027.8 mb - 0.00 in0.0 mm 0.15 in3.8 mm
05:00 PM 41.3°F5.2°C 29.2°F-1.6°C 62% 6.9 mph N11.1 kmh N 5.8 mph9.3 kmh 30.35 in1027.8 mb - 0.00 in0.0 mm 0.15 in3.8 mm
04:55 PM 41.3°F5.2°C 28.5°F-1.9°C 60% 6.9 mph N11.1 kmh N 8.1 mph13.0 kmh 30.35 in1027.8 mb - 0.00 in0.0 mm 0.15 in3.8 mm
04:50 PM 41.4°F5.2°C 28.9°F-1.7°C 61% 9.2 mph N14.8 kmh N 10.4 mph16.7 kmh 30.35 in1027.8 mb - 0.00 in0.0 mm 0.15 in3.8 mm
04:45 PM 41.4°F5.2°C 28.5°F-1.9°C 60% 3.5 mph N5.6 kmh N 9.2 mph14.8 kmh 30.35 in1027.8 mb - 0.00 in0.0 mm 0.15 in3.8 mm
04:40 PM 41.6°F5.3°C 29.1°F-1.6°C 61% 3.5 mph N5.6 kmh N 9.2 mph14.8 kmh 30.35 in1027.8 mb - 0.00 in0.0 mm 0.15 in3.8 mm
04:35 PM 41.6°F5.3°C 28.7°F-1.8°C 60% 5.8 mph N9.3 kmh N 8.1 mph13.0 kmh 30.35 in1027.8 mb - 0.00 in0.0 mm 0.15 in3.8 mm
04:30 PM 41.7°F5.4°C 29.2°F-1.6°C 61% 6.9 mph N11.1 kmh N 8.1 mph13.0 kmh 30.35 in1027.8 mb - 0.00 in0.0 mm 0.15 in3.8 mm
04:25 PM 41.7°F5.4°C 29.2°F-1.6°C 61% 6.9 mph N11.1 kmh N 5.8 mph9.3 kmh 30.35 in1027.8 mb - 0.00 in0.0 mm 0.15 in3.8 mm
04:20 PM 41.7°F5.4°C 29.2°F-1.6°C 61% 4.6 mph N7.4 kmh N 5.8 mph9.3 kmh 30.35 in1027.8 mb - 0.00 in0.0 mm 0.15 in3.8 mm
04:15 PM 41.6°F5.3°C 29.2°F-1.6°C 61% 3.5 mph N5.6 kmh N 8.1 mph13.0 kmh 30.35 in1027.8 mb - 0.00 in0.0 mm 0.15 in3.8 mm
04:10 PM 41.6°F5.3°C 29.5°F-1.4°C 62% 4.6 mph N7.4 kmh N 8.1 mph13.0 kmh 30.35 in1027.8 mb - 0.00 in0.0 mm 0.15 in3.8 mm
04:00 PM 41.5°F5.3°C 29.0°F-1.7°C 61% 11.5 mph N18.5 kmh N 13.8 mph22.2 kmh 30.35 in1027.8 mb - 0.00 in0.0 mm 0.15 in3.8 mm
03:55 PM 41.5°F5.3°C 29.4°F-1.4°C 62% 5.8 mph N9.3 kmh N 10.4 mph16.7 kmh 30.35 in1027.8 mb - 0.00 in0.0 mm 0.15 in3.8 mm
03:50 PM 41.4°F5.2°C 29.3°F-1.5°C 62% 6.9 mph N11.1 kmh N 9.2 mph14.8 kmh 30.36 in1028.1 mb - 0.00 in0.0 mm 0.15 in3.8 mm
03:45 PM 41.4°F5.2°C 29.3°F-1.5°C 62% 10.4 mph N16.7 kmh N 16.1 mph25.9 kmh 30.36 in1028.1 mb - 0.00 in0.0 mm 0.15 in3.8 mm
03:40 PM 41.4°F5.2°C 29.3°F-1.5°C 62% 4.6 mph N7.4 kmh N 8.1 mph13.0 kmh 30.35 in1027.8 mb - 0.00 in0.0 mm 0.15 in3.8 mm
03:35 PM 41.4°F5.2°C 29.7°F-1.3°C 63% 5.8 mph N9.3 kmh N 8.1 mph13.0 kmh 30.36 in1028.1 mb - 0.00 in0.0 mm 0.15 in3.8 mm
03:25 PM 41.5°F5.3°C 29.4°F-1.4°C 62% 6.9 mph N11.1 kmh N 8.1 mph13.0 kmh 30.36 in1028.1 mb - 0.00 in0.0 mm 0.15 in3.8 mm
03:20 PM 41.4°F5.2°C 29.3°F-1.5°C 62% 4.6 mph N7.4 kmh N 3.5 mph5.6 kmh 30.36 in1028.1 mb - 0.00 in0.0 mm 0.15 in3.8 mm
03:15 PM 41.4°F5.2°C 29.3°F-1.5°C 62% 3.5 mph N5.6 kmh N 8.1 mph13.0 kmh 30.36 in1028.1 mb - 0.00 in0.0 mm 0.15 in3.8 mm
03:10 PM 41.3°F5.2°C 29.3°F-1.5°C 62% 12.7 mph N20.4 kmh N 10.4 mph16.7 kmh 30.36 in1028.1 mb - 0.00 in0.0 mm 0.15 in3.8 mm
03:00 PM 41.3°F5.2°C 28.9°F-1.7°C 61% 6.9 mph N11.1 kmh N 9.2 mph14.8 kmh 30.35 in1027.8 mb - 0.00 in0.0 mm 0.15 in3.8 mm
02:55 PM 41.4°F5.2°C 28.9°F-1.7°C 61% 12.7 mph N20.4 kmh N 18.4 mph29.6 kmh 30.35 in1027.8 mb - 0.00 in0.0 mm 0.15 in3.8 mm
02:50 PM 41.4°F5.2°C 29.3°F-1.5°C 62% 4.6 mph N7.4 kmh N 8.1 mph13.0 kmh 30.35 in1027.8 mb - 0.00 in0.0 mm 0.15 in3.8 mm
02:45 PM 41.4°F5.2°C 28.9°F-1.7°C 61% 8.1 mph N13.0 kmh N 10.4 mph16.7 kmh 30.35 in1027.8 mb - 0.00 in0.0 mm 0.15 in3.8 mm
02:40 PM 41.5°F5.3°C 29.8°F-1.2°C 63% 6.9 mph N11.1 kmh N 8.1 mph13.0 kmh 30.34 in1027.4 mb - 0.00 in0.0 mm 0.15 in3.8 mm
02:35 PM 41.5°F5.3°C 29.4°F-1.4°C 62% 3.5 mph N5.6 kmh N 5.8 mph9.3 kmh 30.34 in1027.4 mb - 0.00 in0.0 mm 0.15 in3.8 mm
02:30 PM 41.5°F5.3°C 29.9°F-1.2°C 63% 9.2 mph N14.8 kmh N 16.1 mph25.9 kmh 30.34 in1027.4 mb - 0.00 in0.0 mm 0.15 in3.8 mm
02:25 PM 41.4°F5.2°C 29.7°F-1.3°C 63% 5.8 mph N9.3 kmh N 8.1 mph13.0 kmh 30.34 in1027.4 mb - 0.00 in0.0 mm 0.15 in3.8 mm
02:20 PM 41.2°F5.1°C 29.5°F-1.4°C 63% 2.3 mph N3.7 kmh N 4.6 mph7.4 kmh 30.34 in1027.4 mb - 0.00 in0.0 mm 0.15 in3.8 mm
02:15 PM 41.1°F5.1°C 29.4°F-1.4°C 63% 4.6 mph N7.4 kmh N 4.6 mph7.4 kmh 30.35 in1027.8 mb - 0.00 in0.0 mm 0.15 in3.8 mm
02:10 PM 40.9°F4.9°C 28.9°F-1.7°C 62% 8.1 mph N13.0 kmh N 13.8 mph22.2 kmh 30.35 in1027.8 mb - 0.00 in0.0 mm 0.15 in3.8 mm
02:00 PM 40.7°F4.8°C 28.7°F-1.8°C 62% 3.5 mph N5.6 kmh N 5.8 mph9.3 kmh 30.34 in1027.4 mb - 0.00 in0.0 mm 0.15 in3.8 mm
01:55 PM 40.5°F4.7°C 28.9°F-1.7°C 63% 5.8 mph N9.3 kmh N 9.2 mph14.8 kmh 30.34 in1027.4 mb - 0.00 in0.0 mm 0.15 in3.8 mm
01:50 PM 40.4°F4.7°C 29.2°F-1.6°C 64% 1.2 mph N1.9 kmh N 3.5 mph5.6 kmh 30.35 in1027.8 mb - 0.00 in0.0 mm 0.15 in3.8 mm
01:45 PM 40.2°F4.6°C 29.4°F-1.4°C 65% 2.3 mph N3.7 kmh N 9.2 mph14.8 kmh 30.34 in1027.4 mb - 0.00 in0.0 mm 0.15 in3.8 mm
01:40 PM 40.1°F4.5°C 28.9°F-1.7°C 64% 1.2 mph N1.9 kmh N 4.6 mph7.4 kmh 30.34 in1027.4 mb - 0.00 in0.0 mm 0.15 in3.8 mm
01:35 PM 40.0°F4.4°C 29.2°F-1.6°C 65% 3.5 mph N5.6 kmh N 4.6 mph7.4 kmh 30.34 in1027.4 mb - 0.00 in0.0 mm 0.15 in3.8 mm
01:30 PM 39.9°F4.4°C 29.1°F-1.6°C 65% 3.5 mph N5.6 kmh N 4.6 mph7.4 kmh 30.34 in1027.4 mb - 0.00 in0.0 mm 0.15 in3.8 mm
01:25 PM 40.0°F4.4°C 29.2°F-1.6°C 65% 6.9 mph N11.1 kmh N 10.4 mph16.7 kmh 30.35 in1027.8 mb - 0.00 in0.0 mm 0.15 in3.8 mm
01:20 PM 39.9°F4.4°C 29.1°F-1.6°C 65% 4.6 mph N7.4 kmh N 5.8 mph9.3 kmh 30.35 in1027.8 mb - 0.00 in0.0 mm 0.15 in3.8 mm
01:15 PM 39.8°F4.3°C 29.7°F-1.3°C 67% 3.5 mph N5.6 kmh N 5.8 mph9.3 kmh 30.35 in1027.8 mb - 0.00 in0.0 mm 0.15 in3.8 mm
01:10 PM 39.5°F4.2°C 29.8°F-1.2°C 68% 5.8 mph N9.3 kmh N 8.1 mph13.0 kmh 30.35 in1027.8 mb - 0.00 in0.0 mm 0.15 in3.8 mm
01:00 PM 39.1°F3.9°C 29.8°F-1.2°C 69% 12.7 mph N20.4 kmh N 18.4 mph29.6 kmh 30.35 in1027.8 mb - 0.00 in0.0 mm 0.15 in3.8 mm
12:55 PM 38.9°F3.8°C 29.2°F-1.6°C 68% 2.3 mph N3.7 kmh N 4.6 mph7.4 kmh 30.35 in1027.8 mb - 0.00 in0.0 mm 0.15 in3.8 mm
12:50 PM 38.8°F3.8°C 29.1°F-1.6°C 68% Calm Calm -- 30.36 in1028.1 mb - 0.00 in0.0 mm 0.15 in3.8 mm
12:45 PM 38.6°F3.7°C 28.9°F-1.7°C 68% 8.1 mph N13.0 kmh N 8.1 mph13.0 kmh 30.35 in1027.8 mb - 0.01 in0.3 mm 0.15 in3.8 mm
12:40 PM 38.7°F3.7°C 28.7°F-1.8°C 67% Calm Calm 1.2 mph1.9 kmh 30.36 in1028.1 mb - 0.00 in0.0 mm 0.14 in3.6 mm
12:35 PM 38.6°F3.7°C 29.7°F-1.3°C 70% 1.2 mph N1.9 kmh N 3.5 mph5.6 kmh 30.36 in1028.1 mb - 0.00 in0.0 mm 0.14 in3.6 mm
12:30 PM 38.3°F3.5°C 29.0°F-1.7°C 69% Calm Calm 3.5 mph5.6 kmh 30.35 in1027.8 mb - 0.00 in0.0 mm 0.14 in3.6 mm
12:25 PM 38.3°F3.5°C 28.7°F-1.8°C 68% Calm Calm -- 30.36 in1028.1 mb - 0.00 in0.0 mm 0.14 in3.6 mm
12:20 PM 38.2°F3.4°C 29.3°F-1.5°C 70% 2.3 mph N3.7 kmh N 4.6 mph7.4 kmh 30.36 in1028.1 mb - 0.00 in0.0 mm 0.14 in3.6 mm
12:15 PM 38.0°F3.3°C 29.1°F-1.6°C 70% 4.6 mph N7.4 kmh N 4.6 mph7.4 kmh 30.36 in1028.1 mb - 0.00 in0.0 mm 0.14 in3.6 mm
12:10 PM 37.9°F3.3°C 29.0°F-1.7°C 70% Calm Calm -- 30.37 in1028.4 mb - 0.00 in0.0 mm 0.14 in3.6 mm
12:00 PM 37.3°F2.9°C 29.1°F-1.6°C 72% 4.6 mph N7.4 kmh N 4.6 mph7.4 kmh 30.38 in1028.8 mb - 0.00 in0.0 mm 0.14 in3.6 mm
11:55 AM 37.1°F2.8°C 28.5°F-1.9°C 71% 4.6 mph N7.4 kmh N 5.8 mph9.3 kmh 30.38 in1028.8 mb - 0.00 in0.0 mm 0.14 in3.6 mm
11:50 AM 36.9°F2.7°C 28.3°F-2.1°C 71% 1.2 mph N1.9 kmh N 4.6 mph7.4 kmh 30.38 in1028.8 mb - 0.00 in0.0 mm 0.14 in3.6 mm
11:45 AM 36.5°F2.5°C 28.6°F-1.9°C 73% 2.3 mph N3.7 kmh N 4.6 mph7.4 kmh 30.38 in1028.8 mb - 0.00 in0.0 mm 0.14 in3.6 mm
11:40 AM 36.2°F2.3°C 27.7°F-2.4°C 71% 4.6 mph N7.4 kmh N 8.1 mph13.0 kmh 30.38 in1028.8 mb - 0.01 in0.3 mm 0.14 in3.6 mm
11:35 AM 36.0°F2.2°C 28.2°F-2.1°C 73% Calm Calm -- 30.38 in1028.8 mb - 0.00 in0.0 mm 0.13 in3.3 mm
11:30 AM 35.6°F2.0°C 27.5°F-2.5°C 72% 4.6 mph N7.4 kmh N 4.6 mph7.4 kmh 30.38 in1028.8 mb - 0.00 in0.0 mm 0.13 in3.3 mm
11:25 AM 35.5°F1.9°C 27.0°F-2.8°C 71% Calm Calm 1.2 mph1.9 kmh 30.38 in1028.8 mb - 0.00 in0.0 mm 0.13 in3.3 mm
11:20 AM 35.7°F2.1°C 27.2°F-2.7°C 71% 1.2 mph N1.9 kmh N 1.2 mph1.9 kmh 30.39 in1029.1 mb - 0.00 in0.0 mm 0.13 in3.3 mm
11:15 AM 35.9°F2.2°C 27.4°F-2.6°C 71% 4.6 mph N7.4 kmh N 4.6 mph7.4 kmh 30.38 in1028.8 mb - 0.00 in0.0 mm 0.13 in3.3 mm
11:10 AM 36.0°F2.2°C 27.8°F-2.3°C 72% Calm Calm -- 30.38 in1028.8 mb - 0.01 in0.3 mm 0.13 in3.3 mm
11:00 AM 35.9°F2.2°C 28.1°F-2.2°C 73% Calm Calm -- 30.39 in1029.1 mb - 0.00 in0.0 mm 0.12 in3.0 mm
10:55 AM 35.8°F2.1°C 28.3°F-2.1°C 74% 1.2 mph N1.9 kmh N 3.5 mph5.6 kmh 30.39 in1029.1 mb - 0.01 in0.3 mm 0.12 in3.0 mm
10:50 AM 35.9°F2.2°C 27.7°F-2.4°C 72% 5.8 mph N9.3 kmh N 5.8 mph9.3 kmh 30.39 in1029.1 mb - 0.01 in0.3 mm 0.12 in3.0 mm
10:45 AM 35.5°F1.9°C 27.7°F-2.4°C 73% Calm Calm -- 30.38 in1028.8 mb - 0.00 in0.0 mm 0.11 in2.8 mm
10:40 AM 35.3°F1.8°C 28.4°F-2.0°C 76% Calm Calm -- 30.38 in1028.8 mb - 0.00 in0.0 mm 0.11 in2.8 mm
10:35 AM 34.8°F1.6°C 28.7°F-1.8°C 78% Calm Calm -- 30.38 in1028.8 mb - 0.00 in0.0 mm 0.11 in2.8 mm
10:30 AM 34.4°F1.3°C 28.8°F-1.8°C 80% Calm Calm 1.2 mph1.9 kmh 30.38 in1028.8 mb - 0.00 in0.0 mm 0.11 in2.8 mm
10:25 AM 33.9°F1.1°C 29.0°F-1.7°C 82% 1.2 mph N1.9 kmh N 3.5 mph5.6 kmh 30.38 in1028.8 mb - 0.00 in0.0 mm 0.11 in2.8 mm
10:20 AM 33.7°F0.9°C 29.1°F-1.6°C 83% 2.3 mph N3.7 kmh N 3.5 mph5.6 kmh 30.38 in1028.8 mb - 0.00 in0.0 mm 0.11 in2.8 mm
10:15 AM 33.5°F0.8°C 29.2°F-1.6°C 84% Calm Calm 1.2 mph1.9 kmh 30.38 in1028.8 mb - 0.00 in0.0 mm 0.11 in2.8 mm
10:10 AM 33.4°F0.8°C 29.1°F-1.6°C 84% 4.6 mph N7.4 kmh N 4.6 mph7.4 kmh 30.38 in1028.8 mb - 0.00 in0.0 mm 0.11 in2.8 mm
10:00 AM 33.3°F0.7°C 29.3°F-1.5°C 85% 1.2 mph N1.9 kmh N 1.2 mph1.9 kmh 30.38 in1028.8 mb - 0.00 in0.0 mm 0.11 in2.8 mm
09:55 AM 33.3°F0.7°C 29.3°F-1.5°C 85% Calm Calm 1.2 mph1.9 kmh 30.37 in1028.4 mb - 0.00 in0.0 mm 0.11 in2.8 mm
09:50 AM 33.2°F0.7°C 29.2°F-1.6°C 85% Calm Calm -- 30.37 in1028.4 mb - 0.00 in0.0 mm 0.11 in2.8 mm
09:45 AM 33.2°F0.7°C 29.2°F-1.6°C 85% Calm Calm -- 30.38 in1028.8 mb - 0.00 in0.0 mm 0.11 in2.8 mm
09:40 AM 33.1°F0.6°C 29.1°F-1.6°C 85% 2.3 mph N3.7 kmh N 3.5 mph5.6 kmh 30.37 in1028.4 mb - 0.00 in0.0 mm 0.11 in2.8 mm
09:35 AM 33.0°F0.6°C 29.0°F-1.7°C 85% 1.2 mph N1.9 kmh N 3.5 mph5.6 kmh 30.37 in1028.4 mb - 0.00 in0.0 mm 0.11 in2.8 mm
09:30 AM 32.9°F0.5°C 29.2°F-1.6°C 86% Calm Calm -- 30.36 in1028.1 mb - 0.00 in0.0 mm 0.11 in2.8 mm
09:25 AM 32.9°F0.5°C 29.2°F-1.6°C 86% 1.2 mph N1.9 kmh N 3.5 mph5.6 kmh 30.37 in1028.4 mb - 0.00 in0.0 mm 0.11 in2.8 mm
09:20 AM 32.9°F0.5°C 29.2°F-1.6°C 86% Calm Calm 1.2 mph1.9 kmh 30.37 in1028.4 mb - 0.00 in0.0 mm 0.11 in2.8 mm
09:15 AM 32.8°F0.4°C 29.4°F-1.4°C 87% Calm Calm 1.2 mph1.9 kmh 30.37 in1028.4 mb - 0.00 in0.0 mm 0.11 in2.8 mm
09:10 AM 32.7°F0.4°C 29.3°F-1.5°C 87% 1.2 mph N1.9 kmh N 3.5 mph5.6 kmh 30.37 in1028.4 mb - 0.00 in0.0 mm 0.11 in2.8 mm
09:00 AM 32.4°F0.2°C 29.0°F-1.7°C 87% Calm Calm -- 30.37 in1028.4 mb - 0.00 in0.0 mm 0.11 in2.8 mm
08:55 AM 32.2°F0.1°C 28.8°F-1.8°C 87% Calm Calm -- 30.37 in1028.4 mb - 0.00 in0.0 mm 0.11 in2.8 mm
08:50 AM 32.0°F0.0°C 28.6°F-1.9°C 87% Calm Calm -- 30.37 in1028.4 mb - 0.00 in0.0 mm 0.11 in2.8 mm
08:45 AM 31.8°F-0.1°C 28.4°F-2.0°C 87% Calm Calm -- 30.37 in1028.4 mb - 0.00 in0.0 mm 0.11 in2.8 mm
08:40 AM 31.7°F-0.2°C 28.0°F-2.2°C 86% Calm Calm -- 30.36 in1028.1 mb - 0.00 in0.0 mm 0.11 in2.8 mm
08:35 AM 31.5°F-0.3°C 27.8°F-2.3°C 86% Calm Calm -- 30.36 in1028.1 mb - 0.00 in0.0 mm 0.11 in2.8 mm
08:30 AM 31.5°F-0.3°C 27.8°F-2.3°C 86% Calm Calm -- 30.36 in1028.1 mb - 0.00 in0.0 mm 0.11 in2.8 mm
08:25 AM 31.4°F-0.3°C 28.0°F-2.2°C 87% Calm Calm -- 30.36 in1028.1 mb - 0.00 in0.0 mm 0.11 in2.8 mm
08:20 AM 31.3°F-0.4°C 27.6°F-2.4°C 86% Calm Calm -- 30.36 in1028.1 mb - 0.00 in0.0 mm 0.11 in2.8 mm
08:15 AM 31.2°F-0.4°C 27.5°F-2.5°C 86% Calm Calm -- 30.36 in1028.1 mb - 0.00 in0.0 mm 0.11 in2.8 mm
08:10 AM 31.1°F-0.5°C 27.4°F-2.6°C 86% Calm Calm -- 30.37 in1028.4 mb - 0.11 in2.8 mm 0.11 in2.8 mm
08:00 AM 31.1°F-0.5°C 27.4°F-2.6°C 86% Calm Calm -- 30.37 in1028.4 mb - 0.00 in0.0 mm 0.00 in0.0 mm
07:55 AM 31.0°F-0.6°C 27.3°F-2.6°C 86% Calm Calm -- 30.37 in1028.4 mb - 0.00 in0.0 mm 0.00 in0.0 mm
07:50 AM 31.0°F-0.6°C 27.3°F-2.6°C 86% Calm Calm -- 30.37 in1028.4 mb - 0.00 in0.0 mm 0.00 in0.0 mm
07:45 AM 30.9°F-0.6°C 28.9°F-1.7°C 92% Calm Calm -- 30.37 in1028.4 mb - 0.00 in0.0 mm 0.00 in0.0 mm
07:40 AM 30.9°F-0.6°C 28.3°F-2.1°C 90% Calm Calm -- 30.36 in1028.1 mb - 0.00 in0.0 mm 0.00 in0.0 mm
07:35 AM 30.9°F-0.6°C 27.2°F-2.7°C 86% Calm Calm -- 30.36 in1028.1 mb - 0.00 in0.0 mm 0.00 in0.0 mm
07:30 AM 30.9°F-0.6°C 27.2°F-2.7°C 86% Calm Calm -- 30.35 in1027.8 mb - 0.00 in0.0 mm 0.00 in0.0 mm
07:25 AM 30.9°F-0.6°C 27.2°F-2.7°C 86% Calm Calm -- 30.35 in1027.8 mb - 0.00 in0.0 mm 0.00 in0.0 mm
07:20 AM 30.9°F-0.6°C 27.2°F-2.7°C 86% Calm Calm -- 30.34 in1027.4 mb - 0.00 in0.0 mm 0.00 in0.0 mm
07:15 AM 30.9°F-0.6°C 27.2°F-2.7°C 86% Calm Calm -- 30.34 in1027.4 mb - 0.00 in0.0 mm 0.00 in0.0 mm
07:10 AM 30.9°F-0.6°C 27.8°F-2.3°C 88% Calm Calm -- 30.34 in1027.4 mb - 0.00 in0.0 mm 0.00 in0.0 mm
07:00 AM 30.9°F-0.6°C 27.2°F-2.7°C 86% Calm Calm -- 30.33 in1027.1 mb - 0.00 in0.0 mm 0.00 in0.0 mm
06:55 AM 30.8°F-0.7°C 27.1°F-2.7°C 86% Calm Calm -- 30.33 in1027.1 mb - 0.00 in0.0 mm 0.00 in0.0 mm
06:50 AM 30.8°F-0.7°C 27.1°F-2.7°C 86% Calm Calm -- 30.33 in1027.1 mb - 0.00 in0.0 mm 0.00 in0.0 mm
06:45 AM 30.8°F-0.7°C 27.1°F-2.7°C 86% Calm Calm -- 30.32 in1026.8 mb - 0.00 in0.0 mm 0.00 in0.0 mm
06:40 AM 30.7°F-0.7°C 27.0°F-2.8°C 86% Calm Calm -- 30.32 in1026.8 mb - 0.00 in0.0 mm 0.00 in0.0 mm
06:35 AM 30.7°F-0.7°C 27.0°F-2.8°C 86% Calm Calm -- 30.32 in1026.8 mb - 0.00 in0.0 mm 0.00 in0.0 mm
06:30 AM 30.7°F-0.7°C 27.0°F-2.8°C 86% Calm Calm -- 30.32 in1026.8 mb - 0.00 in0.0 mm 0.00 in0.0 mm
06:25 AM 30.7°F-0.7°C 27.0°F-2.8°C 86% Calm Calm -- 30.32 in1026.8 mb - 0.00 in0.0 mm 0.00 in0.0 mm
06:20 AM 30.7°F-0.7°C 27.0°F-2.8°C 86% Calm Calm -- 30.31 in1026.4 mb - 0.00 in0.0 mm 0.00 in0.0 mm
06:15 AM 30.7°F-0.7°C 27.0°F-2.8°C 86% Calm Calm -- 30.31 in1026.4 mb - 0.00 in0.0 mm 0.00 in0.0 mm
06:10 AM 30.8°F-0.7°C 27.1°F-2.7°C 86% Calm Calm -- 30.30 in1026.1 mb - 0.00 in0.0 mm 0.00 in0.0 mm
06:00 AM 30.8°F-0.7°C 26.9°F-2.8°C 85% Calm Calm -- 30.29 in1025.7 mb - 0.00 in0.0 mm 0.00 in0.0 mm
05:55 AM 30.9°F-0.6°C 27.2°F-2.7°C 86% Calm Calm -- 30.29 in1025.7 mb - 0.00 in0.0 mm 0.00 in0.0 mm
05:50 AM 31.0°F-0.6°C 27.3°F-2.6°C 86% Calm Calm -- 30.29 in1025.7 mb - 0.00 in0.0 mm 0.00 in0.0 mm
05:45 AM 30.9°F-0.6°C 27.2°F-2.7°C 86% Calm Calm -- 30.29 in1025.7 mb - 0.00 in0.0 mm 0.00 in0.0 mm
05:40 AM 30.9°F-0.6°C 27.2°F-2.7°C 86% Calm Calm 1.2 mph1.9 kmh 30.29 in1025.7 mb - 0.00 in0.0 mm 0.00 in0.0 mm
05:35 AM 30.9°F-0.6°C 27.2°F-2.7°C 86% 1.2 mph N1.9 kmh N 4.6 mph7.4 kmh 30.28 in1025.4 mb - 0.00 in0.0 mm 0.00 in0.0 mm
05:30 AM 30.9°F-0.6°C 27.2°F-2.7°C 86% Calm Calm -- 30.27 in1025.1 mb - 0.00 in0.0 mm 0.00 in0.0 mm
05:25 AM 30.9°F-0.6°C 27.2°F-2.7°C 86% Calm Calm -- 30.27 in1025.1 mb - 0.00 in0.0 mm 0.00 in0.0 mm
05:20 AM 30.9°F-0.6°C 27.2°F-2.7°C 86% 1.2 mph N1.9 kmh N 4.6 mph7.4 kmh 30.27 in1025.1 mb - 0.00 in0.0 mm 0.00 in0.0 mm
05:15 AM 31.0°F-0.6°C 27.3°F-2.6°C 86% 1.2 mph N1.9 kmh N 3.5 mph5.6 kmh 30.26 in1024.7 mb - 0.00 in0.0 mm 0.00 in0.0 mm
05:10 AM 31.0°F-0.6°C 27.3°F-2.6°C 86% Calm Calm -- 30.26 in1024.7 mb - 0.00 in0.0 mm 0.00 in0.0 mm
05:00 AM 31.2°F-0.4°C 27.8°F-2.3°C 87% 2.3 mph N3.7 kmh N 4.6 mph7.4 kmh 30.24 in1024.0 mb - 0.00 in0.0 mm 0.00 in0.0 mm
04:55 AM 31.4°F-0.3°C 28.0°F-2.2°C 87% 1.2 mph N1.9 kmh N 3.5 mph5.6 kmh 30.24 in1024.0 mb - 0.00 in0.0 mm 0.00 in0.0 mm
04:50 AM 31.4°F-0.3°C 28.0°F-2.2°C 87% 2.3 mph N3.7 kmh N 4.6 mph7.4 kmh 30.24 in1024.0 mb - 0.00 in0.0 mm 0.00 in0.0 mm
04:45 AM 31.4°F-0.3°C 28.0°F-2.2°C 87% Calm Calm -- 30.23 in1023.7 mb - 0.00 in0.0 mm 0.00 in0.0 mm
04:40 AM 31.4°F-0.3°C 28.0°F-2.2°C 87% 1.2 mph N1.9 kmh N 4.6 mph7.4 kmh 30.23 in1023.7 mb - 0.00 in0.0 mm 0.00 in0.0 mm
04:35 AM 31.4°F-0.3°C 28.0°F-2.2°C 87% Calm Calm 4.6 mph7.4 kmh 30.23 in1023.7 mb - 0.00 in0.0 mm 0.00 in0.0 mm
04:30 AM 31.4°F-0.3°C 28.0°F-2.2°C 87% Calm Calm 1.2 mph1.9 kmh 30.22 in1023.4 mb - 0.00 in0.0 mm 0.00 in0.0 mm
04:25 AM 31.4°F-0.3°C 28.0°F-2.2°C 87% Calm Calm -- 30.21 in1023.0 mb - 0.00 in0.0 mm 0.00 in0.0 mm
04:20 AM 31.5°F-0.3°C 28.1°F-2.2°C 87% Calm Calm -- 30.20 in1022.7 mb - 0.00 in0.0 mm 0.00 in0.0 mm
04:15 AM 31.6°F-0.2°C 28.5°F-1.9°C 88% Calm Calm -- 30.19 in1022.4 mb - 0.00 in0.0 mm 0.00 in0.0 mm
04:10 AM 31.6°F-0.2°C 28.5°F-1.9°C 88% Calm Calm -- 30.20 in1022.7 mb - 0.00 in0.0 mm 0.00 in0.0 mm
04:00 AM 31.6°F-0.2°C 28.5°F-1.9°C 88% 1.2 mph N1.9 kmh N 1.2 mph1.9 kmh 30.20 in1022.7 mb - 0.00 in0.0 mm 0.00 in0.0 mm
03:55 AM 31.6°F-0.2°C 28.5°F-1.9°C 88% Calm Calm -- 30.19 in1022.4 mb - 0.00 in0.0 mm 0.00 in0.0 mm
03:50 AM 31.6°F-0.2°C 28.5°F-1.9°C 88% Calm Calm -- 30.18 in1022.0 mb - 0.00 in0.0 mm 0.00 in0.0 mm
03:45 AM 31.6°F-0.2°C 28.5°F-1.9°C 88% 1.2 mph N1.9 kmh N -- 30.18 in1022.0 mb - 0.00 in0.0 mm 0.00 in0.0 mm
03:40 AM 31.7°F-0.2°C 28.6°F-1.9°C 88% 1.2 mph N1.9 kmh N 3.5 mph5.6 kmh 30.18 in1022.0 mb - 0.00 in0.0 mm 0.00 in0.0 mm
03:35 AM 31.7°F-0.2°C 28.6°F-1.9°C 88% Calm Calm -- 30.17 in1021.7 mb - 0.00 in0.0 mm 0.00 in0.0 mm
03:30 AM 31.8°F-0.1°C 28.7°F-1.8°C 88% Calm Calm -- 30.17 in1021.7 mb - 0.00 in0.0 mm 0.00 in0.0 mm
03:25 AM 31.8°F-0.1°C 28.7°F-1.8°C 88% Calm Calm -- 30.16 in1021.3 mb - 0.00 in0.0 mm 0.00 in0.0 mm
03:20 AM 31.8°F-0.1°C 28.7°F-1.8°C 88% Calm Calm -- 30.16 in1021.3 mb - 0.00 in0.0 mm 0.00 in0.0 mm
03:15 AM 31.9°F-0.1°C 28.7°F-1.8°C 88% 1.2 mph N1.9 kmh N 3.5 mph5.6 kmh 30.16 in1021.3 mb - 0.00 in0.0 mm 0.00 in0.0 mm
03:10 AM 31.9°F-0.1°C 28.8°F-1.8°C 88% 1.2 mph N1.9 kmh N 3.5 mph5.6 kmh 30.16 in1021.3 mb - 0.00 in0.0 mm 0.00 in0.0 mm
03:00 AM 31.9°F-0.1°C 28.8°F-1.8°C 88% 1.2 mph N1.9 kmh N 4.6 mph7.4 kmh 30.15 in1021.0 mb - 0.00 in0.0 mm 0.00 in0.0 mm
02:55 AM 31.8°F-0.1°C 28.7°F-1.8°C 88% Calm Calm -- 30.15 in1021.0 mb - 0.00 in0.0 mm 0.00 in0.0 mm
02:50 AM 31.8°F-0.1°C 28.6°F-1.9°C 88% Calm Calm 3.5 mph5.6 kmh 30.14 in1020.7 mb - 0.00 in0.0 mm 0.00 in0.0 mm
02:45 AM 31.7°F-0.2°C 28.6°F-1.9°C 88% Calm Calm -- 30.14 in1020.7 mb - 0.00 in0.0 mm 0.00 in0.0 mm
02:40 AM 31.6°F-0.2°C 28.5°F-1.9°C 88% Calm Calm -- 30.14 in1020.7 mb - 0.00 in0.0 mm 0.00 in0.0 mm
02:35 AM 31.6°F-0.2°C 28.5°F-1.9°C 88% Calm Calm -- 30.13 in1020.3 mb - 0.00 in0.0 mm 0.00 in0.0 mm
02:30 AM 31.6°F-0.2°C 28.5°F-1.9°C 88% Calm Calm -- 30.13 in1020.3 mb - 0.00 in0.0 mm 0.00 in0.0 mm
02:25 AM 31.6°F-0.2°C 28.5°F-1.9°C 88% Calm Calm -- 30.12 in1020.0 mb - 0.00 in0.0 mm 0.00 in0.0 mm
02:20 AM 31.6°F-0.2°C 28.5°F-1.9°C 88% Calm Calm -- 30.12 in1020.0 mb - 0.00 in0.0 mm 0.00 in0.0 mm
02:15 AM 31.6°F-0.2°C 28.5°F-1.9°C 88% Calm Calm -- 30.12 in1020.0 mb - 0.00 in0.0 mm 0.00 in0.0 mm
02:10 AM 31.5°F-0.3°C 28.4°F-2.0°C 88% Calm Calm -- 30.11 in1019.6 mb - 0.00 in0.0 mm 0.00 in0.0 mm
02:00 AM 31.5°F-0.3°C 28.4°F-2.0°C 88% Calm Calm -- 30.11 in1019.6 mb - 0.00 in0.0 mm 0.00 in0.0 mm
01:55 AM 31.5°F-0.3°C 28.1°F-2.2°C 87% Calm Calm -- 30.10 in1019.3 mb - 0.00 in0.0 mm 0.00 in0.0 mm
01:50 AM 31.5°F-0.3°C 28.1°F-2.2°C 87% Calm Calm -- 30.09 in1019.0 mb - 0.00 in0.0 mm 0.00 in0.0 mm
01:45 AM 31.4°F-0.3°C 28.0°F-2.2°C 87% Calm Calm -- 30.09 in1019.0 mb - 0.00 in0.0 mm 0.00 in0.0 mm
01:40 AM 31.4°F-0.3°C 28.0°F-2.2°C 87% Calm Calm -- 30.09 in1019.0 mb - 0.00 in0.0 mm 0.00 in0.0 mm
01:35 AM 31.4°F-0.3°C 28.0°F-2.2°C 87% Calm Calm -- 30.08 in1018.6 mb - 0.00 in0.0 mm 0.00 in0.0 mm
01:30 AM 31.4°F-0.3°C 28.0°F-2.2°C 87% Calm Calm -- 30.08 in1018.6 mb - 0.00 in0.0 mm 0.00 in0.0 mm
01:25 AM 31.4°F-0.3°C 28.0°F-2.2°C 87% Calm Calm -- 30.07 in1018.3 mb - 0.00 in0.0 mm 0.00 in0.0 mm
01:20 AM 31.5°F-0.3°C 28.1°F-2.2°C 87% Calm Calm -- 30.07 in1018.3 mb - 0.00 in0.0 mm 0.00 in0.0 mm
01:15 AM 31.5°F-0.3°C 28.1°F-2.2°C 87% Calm Calm -- 30.07 in1018.3 mb - 0.00 in0.0 mm 0.00 in0.0 mm
01:10 AM 31.5°F-0.3°C 28.1°F-2.2°C 87% Calm Calm -- 30.06 in1017.9 mb - 0.00 in0.0 mm 0.00 in0.0 mm
01:00 AM 31.5°F-0.3°C 28.1°F-2.2°C 87% Calm Calm -- 30.06 in1017.9 mb - 0.00 in0.0 mm 0.00 in0.0 mm
12:55 AM 31.5°F-0.3°C 28.1°F-2.2°C 87% Calm Calm -- 30.06 in1017.9 mb - 0.00 in0.0 mm 0.00 in0.0 mm
12:50 AM 31.5°F-0.3°C 28.1°F-2.2°C 87% Calm Calm -- 30.06 in1017.9 mb - 0.00 in0.0 mm 0.00 in0.0 mm
12:45 AM 31.5°F-0.3°C 28.1°F-2.2°C 87% Calm Calm -- 30.06 in1017.9 mb - 0.00 in0.0 mm 0.00 in0.0 mm
12:40 AM 31.4°F-0.3°C 28.0°F-2.2°C 87% Calm Calm -- 30.05 in1017.6 mb - 0.00 in0.0 mm 0.00 in0.0 mm
12:35 AM 31.3°F-0.4°C 27.9°F-2.3°C 87% Calm Calm -- 30.05 in1017.6 mb - 0.00 in0.0 mm 0.00 in0.0 mm
12:30 AM 31.2°F-0.4°C 27.8°F-2.3°C 87% Calm Calm -- 30.05 in1017.6 mb - 0.00 in0.0 mm 0.00 in0.0 mm
12:25 AM 31.2°F-0.4°C 27.8°F-2.3°C 87% Calm Calm -- 30.05 in1017.6 mb - 0.00 in0.0 mm 0.00 in0.0 mm
12:20 AM 31.1°F-0.5°C 27.7°F-2.4°C 87% Calm Calm -- 30.05 in1017.6 mb - 0.00 in0.0 mm 0.00 in0.0 mm
12:15 AM 31.1°F-0.5°C 27.7°F-2.4°C 87% Calm Calm -- 30.04 in1017.3 mb - 0.00 in0.0 mm 0.00 in0.0 mm
12:10 AM 31.1°F-0.5°C 27.7°F-2.4°C 87% Calm Calm -- 30.04 in1017.3 mb - 0.00 in0.0 mm 0.00 in0.0 mm
12:00 AM 31.1°F-0.5°C 27.7°F-2.4°C 87% Calm Calm -- 30.04 in1017.3 mb - 0.00 in0.0 mm 0.00 in0.0 mm